createdAt,value
2022-12-13T00:00:14.945Z,100.00
2022-12-13T00:03:28.634Z,100.00
2022-12-13T00:06:41.512Z,100.00
2022-12-13T00:09:53.261Z,100.00
2022-12-13T00:13:05.150Z,100.00
2022-12-13T00:16:22.691Z,100.00
2022-12-13T00:19:34.770Z,100.00
2022-12-13T00:22:46.846Z,100.00
2022-12-13T00:25:58.708Z,100.00
2022-12-13T00:29:13.258Z,100.00
2022-12-13T00:32:25.613Z,100.00
2022-12-13T00:35:37.921Z,100.00
2022-12-13T00:38:52.224Z,100.00
2022-12-13T00:42:04.361Z,100.00
2022-12-13T00:45:17.542Z,100.00
2022-12-13T00:48:39.401Z,100.00
2022-12-13T00:55:41.573Z,100.00
2022-12-13T00:59:05.793Z,100.00
2022-12-13T01:02:17.540Z,100.00
2022-12-13T01:06:12.538Z,100.00
2022-12-13T01:11:52.863Z,100.00
2022-12-13T01:15:04.788Z,100.00
2022-12-13T01:18:26.770Z,100.00
2022-12-13T01:21:38.716Z,100.00
2022-12-13T01:24:50.888Z,100.00
2022-12-13T01:28:02.706Z,100.00
2022-12-13T01:31:26.713Z,100.00
2022-12-13T01:34:38.490Z,100.00
2022-12-13T01:37:51.516Z,100.00
2022-12-13T01:41:08.995Z,100.00
2022-12-13T01:45:12.545Z,100.00
2022-12-13T01:48:29.239Z,100.00
2022-12-13T01:51:46.109Z,100.00
2022-12-13T01:55:29.388Z,100.00
2022-12-13T01:58:43.076Z,100.00
2022-12-13T02:02:00.996Z,100.00
2022-12-13T02:05:18.442Z,100.00
2022-12-13T02:08:35.970Z,100.00
2022-12-13T02:11:49.137Z,100.00
2022-12-13T02:15:02.552Z,100.00
2022-12-13T02:18:29.627Z,100.00
2022-12-13T02:21:47.834Z,100.00
2022-12-13T02:25:28.612Z,100.00
2022-12-13T02:28:53.354Z,100.00
2022-12-13T02:32:11.560Z,100.00
2022-12-13T02:35:36.184Z,100.00
2022-12-13T02:38:55.743Z,100.00
2022-12-13T02:42:21.410Z,100.00
2022-12-13T02:45:45.524Z,100.00
2022-12-13T02:49:00.929Z,100.00
2022-12-13T02:52:22.414Z,100.00
2022-12-13T02:55:32.549Z,100.00
2022-12-13T02:58:48.843Z,100.00
2022-12-13T03:02:10.939Z,100.00
2022-12-13T03:05:51.250Z,100.00
2022-12-13T03:09:24.000Z,100.00
2022-12-13T03:12:56.016Z,100.00
2022-12-13T03:16:15.439Z,100.00
2022-12-13T03:19:29.467Z,100.00
2022-12-13T03:22:42.708Z,100.00
2022-12-13T03:25:57.807Z,100.00
2022-12-13T03:29:09.895Z,100.00
2022-12-13T03:32:21.654Z,100.00
2022-12-13T03:35:44.383Z,100.00
2022-12-13T03:38:48.056Z,100.00
2022-12-13T03:42:01.023Z,100.00
2022-12-13T03:45:15.534Z,100.00
2022-12-13T03:48:28.696Z,100.00
2022-12-13T03:51:40.834Z,100.00
2022-12-13T03:54:52.677Z,100.00
2022-12-13T03:58:07.817Z,100.00
2022-12-13T04:01:22.273Z,100.00
2022-12-13T04:04:34.375Z,100.00
2022-12-13T04:07:47.903Z,100.00
2022-12-13T04:11:00.209Z,100.00
2022-12-13T04:14:22.627Z,100.00
2022-12-13T04:17:27.892Z,100.00
2022-12-13T04:20:39.690Z,100.00
2022-12-13T04:23:51.509Z,100.00
2022-12-13T04:27:03.387Z,100.00
2022-12-13T04:30:27.006Z,100.00
2022-12-13T04:33:41.164Z,100.00
2022-12-13T04:36:53.129Z,100.00
2022-12-13T04:40:21.558Z,100.00
2022-12-13T04:43:30.885Z,100.00
2022-12-13T04:46:44.072Z,100.00
2022-12-13T04:50:03.663Z,100.00
2022-12-13T04:53:45.965Z,100.00
2022-12-13T04:57:00.071Z,100.00
2022-12-13T05:00:21.287Z,100.00
2022-12-13T05:03:33.492Z,100.00
2022-12-13T05:06:46.425Z,100.00
2022-12-13T05:13:38.986Z,100.00
2022-12-13T05:16:51.033Z,100.00
2022-12-13T05:20:03.095Z,100.00
2022-12-13T05:26:55.875Z,100.00
2022-12-13T05:30:08.190Z,100.00
2022-12-13T05:33:20.234Z,100.00
2022-12-13T05:36:32.690Z,100.00
2022-12-13T05:39:44.756Z,100.00
2022-12-13T05:43:01.431Z,100.00
2022-12-13T05:46:11.364Z,100.00
2022-12-13T05:49:32.529Z,100.00
2022-12-13T05:52:44.894Z,100.00
2022-12-13T05:55:56.751Z,100.00
2022-12-13T05:59:08.696Z,100.00
2022-12-13T06:02:22.157Z,100.00
2022-12-13T06:05:35.066Z,100.00
2022-12-13T06:08:47.491Z,100.00
2022-12-13T06:12:01.147Z,100.00
2022-12-13T06:15:21.943Z,100.00
2022-12-13T06:18:30.600Z,100.00
2022-12-13T06:21:46.379Z,100.00
2022-12-13T06:24:57.370Z,100.00
2022-12-13T06:28:09.572Z,100.00
2022-12-13T06:31:21.454Z,100.00
2022-12-13T06:34:33.852Z,100.00
2022-12-13T06:37:46.520Z,100.00
2022-12-13T06:40:58.595Z,100.00
2022-12-13T06:44:12.854Z,100.00
2022-12-13T06:47:31.726Z,100.00
2022-12-13T06:50:39.237Z,100.00
2022-12-13T06:53:51.182Z,100.00
2022-12-13T06:57:03.035Z,100.00
2022-12-13T07:00:22.623Z,100.00
2022-12-13T07:03:37.584Z,100.00
2022-12-13T07:06:50.928Z,100.00
2022-12-13T07:10:03.445Z,100.00
2022-12-13T07:13:16.717Z,100.00
2022-12-13T07:16:30.080Z,100.00
2022-12-13T07:19:42.278Z,100.00
2022-12-13T07:22:58.908Z,100.00
2022-12-13T07:26:11.748Z,100.00
2022-12-13T07:29:23.838Z,100.00
2022-12-13T07:32:36.421Z,100.00
2022-12-13T07:35:48.900Z,100.00
2022-12-13T07:39:03.967Z,100.00
2022-12-13T07:42:15.817Z,100.00
2022-12-13T07:45:29.095Z,100.00
2022-12-13T07:48:41.353Z,100.00
2022-12-13T07:51:53.244Z,100.00
2022-12-13T07:55:05.854Z,100.00
2022-12-13T07:58:19.838Z,100.00
2022-12-13T08:01:32.222Z,100.00
2022-12-13T08:04:44.443Z,100.00
2022-12-13T08:07:57.184Z,100.00
2022-12-13T08:11:15.449Z,100.00
2022-12-13T08:14:27.344Z,100.00
2022-12-13T08:17:39.395Z,100.00
2022-12-13T08:20:52.728Z,100.00
2022-12-13T08:24:07.215Z,100.00
2022-12-13T08:27:19.955Z,100.00
2022-12-13T08:30:31.923Z,100.00
2022-12-13T08:33:46.503Z,100.00
2022-12-13T08:37:01.986Z,100.00
2022-12-13T08:40:15.809Z,100.00
2022-12-13T08:43:29.311Z,100.00
2022-12-13T08:46:41.346Z,100.00
2022-12-13T08:49:53.265Z,100.00
2022-12-13T08:53:05.401Z,100.00
2022-12-13T08:56:18.954Z,100.00
2022-12-13T08:59:32.236Z,100.00
2022-12-13T09:02:44.766Z,100.00
2022-12-13T09:05:57.099Z,100.00
2022-12-13T09:09:09.426Z,100.00
2022-12-13T09:12:30.707Z,100.00
2022-12-13T09:15:36.738Z,100.00
2022-12-13T09:18:55.404Z,100.00
2022-12-13T09:22:03.823Z,100.00
2022-12-13T09:25:24.004Z,100.00
2022-12-13T09:28:30.755Z,100.00
2022-12-13T09:31:42.641Z,100.00
2022-12-13T09:34:57.615Z,100.00
2022-12-13T09:38:09.935Z,100.00
2022-12-13T09:41:28.313Z,100.00
2022-12-13T09:44:51.548Z,100.00
2022-12-13T09:48:05.897Z,100.00
2022-12-13T09:51:28.603Z,100.00
2022-12-13T09:54:36.494Z,100.00
2022-12-13T09:57:52.808Z,100.00
2022-12-13T10:01:09.691Z,100.00
2022-12-13T10:04:26.045Z,100.00
2022-12-13T10:07:40.134Z,100.00
2022-12-13T10:10:53.064Z,100.00
2022-12-13T10:14:10.816Z,100.00
2022-12-13T10:17:26.281Z,99.14
2022-12-13T10:20:40.198Z,98.73
2022-12-13T10:24:23.650Z,97.08
2022-12-13T10:27:14.736Z,97.53
2022-12-13T10:30:29.435Z,98.21
2022-12-13T10:33:44.764Z,97.91
2022-12-13T10:36:59.515Z,97.44
2022-12-13T10:40:32.819Z,98.81
2022-12-13T10:43:39.814Z,99.27
2022-12-13T10:47:09.966Z,99.67
2022-12-13T10:50:33.462Z,100.00
2022-12-13T10:53:51.485Z,100.00
2022-12-13T10:57:04.875Z,100.00
2022-12-13T11:00:40.635Z,99.93
2022-12-13T11:04:04.664Z,100.00
2022-12-13T11:07:32.715Z,99.61
2022-12-13T11:10:45.986Z,95.89
2022-12-13T11:14:03.720Z,95.23
2022-12-13T11:17:23.255Z,95.89
2022-12-13T11:20:40.124Z,96.19
2022-12-13T11:23:52.973Z,97.75
2022-12-13T11:27:10.105Z,96.56
2022-12-13T11:30:28.915Z,95.49
2022-12-13T11:33:49.509Z,95.24
2022-12-13T11:37:08.635Z,92.77
2022-12-13T11:40:26.023Z,92.58
2022-12-13T11:43:43.827Z,91.55
2022-12-13T11:47:01.775Z,89.98
2022-12-13T11:50:32.999Z,90.19
2022-12-13T11:53:43.471Z,89.47
2022-12-13T11:57:00.803Z,89.69
2022-12-13T12:00:33.366Z,89.92
2022-12-13T12:03:46.114Z,89.55
2022-12-13T12:07:24.572Z,90.97
2022-12-13T12:10:29.524Z,91.33
2022-12-13T12:13:50.514Z,91.79
2022-12-13T12:17:03.906Z,91.67
2022-12-13T12:20:24.745Z,90.55
2022-12-13T12:23:52.661Z,90.63
2022-12-13T12:27:13.988Z,91.65
2022-12-13T12:30:32.962Z,92.42
2022-12-13T12:33:46.898Z,92.56
2022-12-13T12:37:08.567Z,92.73
2022-12-13T12:41:14.691Z,92.16
2022-12-13T12:44:08.613Z,93.41
2022-12-13T12:47:57.562Z,93.34
2022-12-13T12:50:52.487Z,93.11
2022-12-13T12:54:12.704Z,93.36
2022-12-13T12:57:30.719Z,93.24
2022-12-13T13:00:50.582Z,94.28
2022-12-13T13:04:08.918Z,95.10
2022-12-13T13:07:25.683Z,93.70
2022-12-13T13:10:36.031Z,94.12
2022-12-13T13:13:56.294Z,93.87
2022-12-13T13:17:56.940Z,95.00
2022-12-13T13:21:39.484Z,96.43
2022-12-13T13:25:03.362Z,96.17
2022-12-13T13:28:22.246Z,95.67
2022-12-13T13:31:39.003Z,96.39
2022-12-13T13:34:53.612Z,95.88
2022-12-13T13:38:13.725Z,97.19
2022-12-13T13:42:07.862Z,97.94
2022-12-13T13:45:32.141Z,97.78
2022-12-13T13:49:02.977Z,98.86
2022-12-13T13:52:27.063Z,99.60
2022-12-13T13:56:02.995Z,98.70
2022-12-13T14:00:06.668Z,98.56
2022-12-13T14:04:15.673Z,98.87
2022-12-13T14:08:14.327Z,99.03
2022-12-13T14:12:20.301Z,99.65
2022-12-13T14:16:12.091Z,100.00
2022-12-13T14:20:06.231Z,100.00
2022-12-13T14:23:29.408Z,100.00
2022-12-13T14:26:58.379Z,100.00
2022-12-13T14:30:27.164Z,100.00
2022-12-13T14:33:34.700Z,100.00
2022-12-13T14:36:49.648Z,100.00
2022-12-13T14:40:01.538Z,100.00
2022-12-13T14:43:28.542Z,100.00
2022-12-13T14:46:41.270Z,100.00
2022-12-13T14:49:57.717Z,100.00
2022-12-13T14:53:10.425Z,100.00
2022-12-13T14:56:28.441Z,100.00
2022-12-13T14:59:37.726Z,100.00
2022-12-13T15:02:58.582Z,98.96
2022-12-13T15:06:11.780Z,98.94
2022-12-13T15:09:24.085Z,99.34
2022-12-13T15:12:39.133Z,99.57
2022-12-13T15:15:55.395Z,100.00
2022-12-13T15:19:30.062Z,100.00
2022-12-13T15:22:41.028Z,100.00
2022-12-13T15:26:03.445Z,100.00
2022-12-13T15:29:17.978Z,99.83
2022-12-13T15:32:30.603Z,99.94
2022-12-13T15:35:43.449Z,98.66
2022-12-13T15:39:07.151Z,98.63
2022-12-13T15:42:25.815Z,99.32
2022-12-13T15:45:38.176Z,100.00
2022-12-13T15:48:53.681Z,100.00
2022-12-13T15:52:08.877Z,100.00
2022-12-13T15:55:41.423Z,100.00
2022-12-13T15:58:58.541Z,100.00
2022-12-13T16:02:14.026Z,99.89
2022-12-13T16:05:36.705Z,100.00
2022-12-13T16:08:50.131Z,100.00
2022-12-13T16:12:06.930Z,100.00
2022-12-13T16:15:29.603Z,100.00
2022-12-13T16:18:48.902Z,99.60
2022-12-13T16:22:01.111Z,100.00
2022-12-13T16:25:17.483Z,100.00
2022-12-13T16:28:29.717Z,97.91
2022-12-13T16:31:41.854Z,98.92
2022-12-13T16:34:53.925Z,96.82
2022-12-13T16:38:09.421Z,96.76
2022-12-13T16:41:22.233Z,95.74
2022-12-13T16:44:40.859Z,95.00
2022-12-13T16:47:54.263Z,95.99
2022-12-13T16:51:08.671Z,97.18
2022-12-13T16:54:20.786Z,97.77
2022-12-13T16:57:32.807Z,96.59
2022-12-13T17:00:45.572Z,96.38
2022-12-13T17:03:57.601Z,95.77
2022-12-13T17:07:09.581Z,94.09
2022-12-13T17:10:22.934Z,93.63
2022-12-13T17:13:35.645Z,94.64
2022-12-13T17:16:47.637Z,94.25
2022-12-13T17:20:00.408Z,94.11
2022-12-13T17:23:24.695Z,94.54
2022-12-13T17:26:26.967Z,93.85
2022-12-13T17:29:39.072Z,94.53
2022-12-13T17:32:51.554Z,92.90
2022-12-13T17:36:05.028Z,93.56
2022-12-13T17:39:19.107Z,93.68
2022-12-13T17:42:31.138Z,93.82
2022-12-13T17:45:44.059Z,93.55
2022-12-13T17:48:56.887Z,94.17
2022-12-13T17:52:11.581Z,94.94
2022-12-13T17:55:23.812Z,94.21
2022-12-13T17:58:36.576Z,92.27
2022-12-13T18:01:50.646Z,92.71
2022-12-13T18:05:02.885Z,92.93
2022-12-13T18:08:14.916Z,93.68
2022-12-13T18:11:35.092Z,91.88
2022-12-13T18:14:41.404Z,95.53
2022-12-13T18:21:13.241Z,95.29
2022-12-13T18:24:25.148Z,94.18
2022-12-13T18:27:39.639Z,94.16
2022-12-13T18:30:51.765Z,95.09
2022-12-13T18:34:05.795Z,96.87
2022-12-13T18:37:17.782Z,97.67
2022-12-13T18:40:29.966Z,97.96
2022-12-13T18:43:42.314Z,98.80
2022-12-13T18:46:54.425Z,98.63
2022-12-13T18:50:06.691Z,98.60
2022-12-13T18:53:20.595Z,99.01
2022-12-13T18:56:32.703Z,98.24
2022-12-13T18:59:54.326Z,98.85
2022-12-13T19:02:58.977Z,98.33
2022-12-13T19:06:14.630Z,97.80
2022-12-13T19:09:26.637Z,98.14
2022-12-13T19:12:38.638Z,98.29
2022-12-13T19:15:51.164Z,98.33
2022-12-13T19:19:03.536Z,99.61
2022-12-13T19:22:15.878Z,98.60
2022-12-13T19:25:27.923Z,99.06
2022-12-13T19:28:43.129Z,99.44
2022-12-13T19:31:55.423Z,99.76
2022-12-13T19:35:07.713Z,100.00
2022-12-13T19:38:21.926Z,98.66
2022-12-13T19:41:35.496Z,98.14
2022-12-13T19:44:47.680Z,97.05
2022-12-13T19:47:59.643Z,96.30
2022-12-13T19:51:14.230Z,96.33
2022-12-13T19:54:28.239Z,96.61
2022-12-13T19:57:41.347Z,96.08
2022-12-13T20:00:53.632Z,95.62
2022-12-13T20:04:05.922Z,96.08
2022-12-13T20:07:18.287Z,97.22
2022-12-13T20:10:30.885Z,97.25
2022-12-13T20:13:43.797Z,97.10
2022-12-13T20:16:55.773Z,95.73
2022-12-13T20:20:07.805Z,97.27
2022-12-13T20:23:20.557Z,96.59
2022-12-13T20:26:35.725Z,98.16
2022-12-13T20:29:48.332Z,98.66
2022-12-13T20:33:01.496Z,98.97
2022-12-13T20:36:25.905Z,99.41
2022-12-13T20:39:31.423Z,100.00
2022-12-13T20:42:44.401Z,100.00
2022-12-13T20:45:56.384Z,99.89
2022-12-13T20:49:10.937Z,99.92
2022-12-13T20:52:22.888Z,100.00
2022-12-13T20:55:34.962Z,100.00
2022-12-13T20:58:47.615Z,100.00
2022-12-13T21:01:59.583Z,100.00
2022-12-13T21:05:19.100Z,100.00
2022-12-13T21:08:42.036Z,100.00
2022-12-13T21:11:55.228Z,100.00
2022-12-13T21:15:07.416Z,100.00
2022-12-13T21:18:19.387Z,100.00
2022-12-13T21:21:32.880Z,100.00
2022-12-13T21:24:44.775Z,100.00
2022-12-13T21:27:56.713Z,100.00
2022-12-13T21:31:10.931Z,100.00
2022-12-13T21:34:23.229Z,100.00
2022-12-13T21:37:35.067Z,100.00
2022-12-13T21:40:52.145Z,100.00
2022-12-13T21:44:05.274Z,100.00
2022-12-13T21:47:17.164Z,100.00
2022-12-13T21:50:28.972Z,100.00
2022-12-13T21:53:41.289Z,100.00
2022-12-13T21:57:07.726Z,100.00
2022-12-13T22:00:22.095Z,100.00
2022-12-13T22:03:33.964Z,100.00
2022-12-13T22:06:45.840Z,100.00
2022-12-13T22:09:59.524Z,100.00
2022-12-13T22:13:11.427Z,100.00
2022-12-13T22:16:23.243Z,100.00
2022-12-13T22:19:35.082Z,100.00
2022-12-13T22:22:48.617Z,100.00
2022-12-13T22:26:00.481Z,100.00
2022-12-13T22:29:14.050Z,100.00
2022-12-13T22:32:27.201Z,100.00
2022-12-13T22:35:39.480Z,100.00
2022-12-13T22:38:54.546Z,100.00
2022-12-13T22:42:06.566Z,100.00
2022-12-13T22:45:18.947Z,100.00
2022-12-13T22:48:30.920Z,100.00
2022-12-13T22:51:44.342Z,100.00
2022-12-13T22:54:56.215Z,100.00
2022-12-13T22:58:08.124Z,100.00
2022-12-13T23:01:22.780Z,100.00
2022-12-13T23:04:34.868Z,100.00
2022-12-13T23:07:48.516Z,100.00
2022-12-13T23:11:19.066Z,100.00
2022-12-13T23:14:37.016Z,100.00
2022-12-13T23:17:48.937Z,100.00
2022-12-13T23:21:00.837Z,100.00
2022-12-13T23:24:14.656Z,100.00
2022-12-13T23:27:28.533Z,100.00
2022-12-13T23:30:41.701Z,100.00
2022-12-13T23:33:53.924Z,100.00
2022-12-13T23:37:05.801Z,100.00
2022-12-13T23:40:19.629Z,100.00
2022-12-13T23:43:34.388Z,100.00
2022-12-13T23:46:48.342Z,100.00
2022-12-13T23:50:00.908Z,100.00
2022-12-13T23:53:12.850Z,100.00
2022-12-13T23:56:25.505Z,100.00
2022-12-13T23:59:37.448Z,100.00
